Time;durP1;ratioP1;P1;durP2;ratioP2;P2;SDS_P1;SDS_P2;PMS_P1;PMS_P2;Temp;Humidity;BMP_temperature;BMP_pressure;BME280_temperature;BME280_humidity;BME280_pressure;Samples;Min_cycle;Max_cycle;Signal;HPM_P1;HPM_P2
2022/03/20 00:02:11;;;;;;;5.22;1.48;;;22.70;99.90;;;;;;5118261;27;20276;-79
2022/03/20 00:04:44;;;;;;;6.25;1.40;;;22.80;99.90;;;;;;5122125;27;20209;-80
2022/03/20 00:07:15;;;;;;;9.75;1.58;;;22.90;99.90;;;;;;5104660;27;20560;-79
2022/03/20 00:09:46;;;;;;;10.82;2.08;;;23.10;99.90;;;;;;5105322;27;20225;-80
2022/03/20 00:12:17;;;;;;;10.30;1.70;;;23.20;99.90;;;;;;5103136;27;20223;-80
2022/03/20 00:14:48;;;;;;;8.50;2.13;;;23.30;99.90;;;;;;5109391;27;20213;-80
2022/03/20 00:17:20;;;;;;;7.40;1.63;;;23.30;99.90;;;;;;5118229;27;20243;-81
2022/03/20 00:19:51;;;;;;;5.90;1.50;;;23.30;99.90;;;;;;5111401;27;20217;-79
2022/03/20 00:22:22;;;;;;;6.10;1.88;;;23.30;99.90;;;;;;5107801;27;20222;-79
2022/03/20 00:24:53;;;;;;;6.97;1.38;;;23.30;99.90;;;;;;5104042;27;20261;-82
2022/03/20 00:27:23;;;;;;;5.72;1.70;;;23.40;99.90;;;;;;5110204;27;21028;-79
2022/03/20 00:29:54;;;;;;;6.88;1.40;;;23.50;99.90;;;;;;5122768;27;20266;-80
2022/03/20 00:32:27;;;;;;;6.50;1.60;;;23.60;99.90;;;;;;5112822;27;20220;-83
2022/03/20 00:34:59;;;;;;;7.55;1.95;;;23.80;99.90;;;;;;5100112;27;20241;-79
2022/03/20 00:37:30;;;;;;;6.75;1.65;;;23.80;99.90;;;;;;5103599;27;20213;-79
2022/03/20 00:40:00;;;;;;;7.72;1.73;;;23.80;99.90;;;;;;5102583;27;20718;-79
2022/03/20 00:42:31;;;;;;;4.88;1.42;;;23.90;99.90;;;;;;5102540;27;21583;-78
2022/03/20 00:45:02;;;;;;;7.60;1.52;;;23.90;99.90;;;;;;5099846;27;20241;-79
2022/03/20 00:47:34;;;;;;;6.90;1.63;;;23.90;99.90;;;;;;5095133;27;20218;-78
2022/03/20 00:50:05;;;;;;;5.20;1.33;;;23.90;99.90;;;;;;5096664;27;20275;-77
2022/03/20 00:52:36;;;;;;;6.38;1.70;;;23.90;99.90;;;;;;5098765;27;20233;-77
2022/03/20 00:55:08;;;;;;;8.50;1.45;;;23.90;99.90;;;;;;5100614;27;20960;-77
2022/03/20 00:57:38;;;;;;;8.07;1.60;;;23.70;99.90;;;;;;5096512;27;20233;-77
2022/03/20 01:00:10;;;;;;;7.25;1.63;;;23.70;99.90;;;;;;5096522;27;20601;-77
2022/03/20 01:02:44;;;;;;;5.13;1.48;;;23.70;99.90;;;;;;5099875;27;20230;-77
2022/03/20 01:05:15;;;;;;;4.72;1.35;;;23.80;99.90;;;;;;5097217;27;20275;-77
2022/03/20 01:07:46;;;;;;;8.02;1.83;;;23.80;99.90;;;;;;5098925;27;20271;-77
2022/03/20 01:10:17;;;;;;;3.25;1.05;;;23.90;99.90;;;;;;5096046;27;20419;-77
2022/03/20 01:12:47;;;;;;;3.08;1.13;;;24.00;99.90;;;;;;5096529;27;20788;-77
2022/03/20 01:15:18;;;;;;;7.97;1.42;;;24.10;99.90;;;;;;5101282;27;20241;-78
2022/03/20 01:17:51;;;;;;;5.45;1.42;;;24.10;99.90;;;;;;5093468;27;20432;-78
2022/03/20 01:20:21;;;;;;;6.88;1.73;;;24.20;99.90;;;;;;5092402;27;20222;-79
2022/03/20 01:22:52;;;;;;;5.15;1.27;;;24.30;99.90;;;;;;5095630;27;20229;-79
2022/03/20 01:25:23;;;;;;;7.65;1.60;;;24.30;99.90;;;;;;5095132;27;20226;-79
2022/03/20 01:27:53;;;;;;;4.18;1.33;;;24.30;99.90;;;;;;5093547;27;20230;-79
2022/03/20 01:30:24;;;;;;;5.07;1.70;;;24.30;99.90;;;;;;5097158;27;20282;-78
2022/03/20 01:32:57;;;;;;;6.53;1.60;;;24.40;99.90;;;;;;5095264;27;20769;-80
2022/03/20 01:35:28;;;;;;;4.75;1.23;;;24.40;99.90;;;;;;5096513;27;20306;-80
2022/03/20 01:37:58;;;;;;;6.32;1.63;;;24.50;99.90;;;;;;5111022;27;20214;-79
2022/03/20 01:40:29;;;;;;;6.10;1.50;;;24.50;99.90;;;;;;5112326;28;20194;-77
2022/03/20 01:43:01;;;;;;;7.10;1.70;;;24.50;99.90;;;;;;5119479;28;20294;-78
2022/03/20 01:45:32;;;;;;;5.53;1.50;;;24.60;99.90;;;;;;5111563;28;20688;-79
2022/03/20 01:48:04;;;;;;;4.43;1.30;;;24.60;99.90;;;;;;5109287;28;20685;-79
2022/03/20 01:50:35;;;;;;;3.00;1.15;;;24.70;99.90;;;;;;5109599;28;20683;-78
2022/03/20 01:53:05;;;;;;;5.75;1.50;;;24.70;99.90;;;;;;5110626;28;20291;-79
2022/03/20 01:55:36;;;;;;;9.23;2.95;;;24.80;99.90;;;;;;5111614;28;20209;-79
2022/03/20 01:58:07;;;;;;;8.18;1.80;;;24.90;99.90;;;;;;5110555;28;20195;-79
2022/03/20 02:00:38;;;;;;;5.43;1.38;;;24.90;99.90;;;;;;5116636;28;20198;-78
2022/03/20 02:03:10;;;;;;;6.40;1.63;;;24.90;99.90;;;;;;5111117;28;20222;-78
2022/03/20 02:05:43;;;;;;;5.88;1.42;;;25.00;99.90;;;;;;5122143;28;20197;-78
2022/03/20 02:08:19;;;;;;;5.32;1.42;;;25.10;99.90;;;;;;5111792;28;20613;-78
2022/03/20 02:10:51;;;;;;;5.82;1.27;;;25.00;99.90;;;;;;5110900;28;20201;-79
2022/03/20 02:13:24;;;;;;;5.93;1.42;;;25.00;99.90;;;;;;5119596;28;20209;-79
2022/03/20 02:15:54;;;;;;;4.03;1.25;;;25.00;99.90;;;;;;5110595;28;20718;-79
2022/03/20 02:18:27;;;;;;;5.43;1.33;;;25.10;99.90;;;;;;5110549;28;20210;-79
2022/03/20 02:20:59;;;;;;;7.20;2.03;;;25.20;99.90;;;;;;5110717;28;20255;-78
2022/03/20 02:23:34;;;;;;;5.35;1.60;;;25.10;99.90;;;;;;5114047;28;20236;-79
2022/03/20 02:26:05;;;;;;;7.47;1.70;;;25.10;99.90;;;;;;5110331;28;20721;-78
2022/03/20 02:28:37;;;;;;;5.32;1.17;;;25.10;99.90;;;;;;5110124;28;20704;-79
2022/03/20 02:31:08;;;;;;;3.78;1.20;;;25.20;99.90;;;;;;5126683;28;20255;-78
2022/03/20 02:33:39;;;;;;;5.68;1.30;;;25.20;99.90;;;;;;5130758;28;20206;-79
2022/03/20 02:36:10;;;;;;;5.85;1.60;;;25.30;99.90;;;;;;5130853;28;20657;-78
2022/03/20 02:38:43;;;;;;;7.10;1.27;;;25.40;99.90;;;;;;5126738;28;20199;-79
2022/03/20 02:41:16;;;;;;;4.28;1.40;;;25.50;99.90;;;;;;5110583;28;20218;-78
2022/03/20 02:43:55;;;;;;;7.15;1.73;;;25.50;99.90;;;;;;5110731;28;20214;-78
2022/03/20 02:46:27;;;;;;;5.57;1.40;;;25.50;99.90;;;;;;5112256;28;20209;-78
2022/03/20 02:48:58;;;;;;;8.27;1.75;;;25.50;99.90;;;;;;5118539;28;20245;-78
2022/03/20 02:51:28;;;;;;;9.07;1.33;;;25.60;99.90;;;;;;5110201;28;20237;-78
2022/03/20 02:54:01;;;;;;;4.57;1.23;;;25.70;99.90;;;;;;5114506;28;20639;-79
2022/03/20 02:56:33;;;;;;;8.90;1.40;;;25.70;99.90;;;;;;5119278;28;20187;-77
2022/03/20 02:59:05;;;;;;;6.35;1.52;;;25.80;99.90;;;;;;5122041;27;20198;-77
2022/03/20 03:01:36;;;;;;;4.38;1.55;;;25.80;99.90;;;;;;5114699;27;20194;-77
2022/03/20 03:04:06;;;;;;;4.05;1.05;;;25.80;99.90;;;;;;5121494;27;20258;-77
2022/03/20 03:06:37;;;;;;;5.28;1.33;;;25.90;99.90;;;;;;5134216;27;20193;-77
2022/03/20 03:11:58;;;;;;;3.42;1.17;;;26.00;99.90;;;;;;5127975;27;20291;-78
2022/03/20 03:17:27;;;;;;;6.07;1.48;;;26.00;99.90;;;;;;5121557;27;20201;-78
2022/03/20 03:19:58;;;;;;;6.40;1.58;;;26.00;99.90;;;;;;5133730;27;20699;-79
2022/03/20 03:22:29;;;;;;;4.18;0.90;;;26.00;99.90;;;;;;5123466;27;20653;-79
2022/03/20 03:25:02;;;;;;;6.38;1.50;;;26.10;99.90;;;;;;5133727;27;20226;-78
2022/03/20 03:27:32;;;;;;;5.28;1.25;;;26.10;99.90;;;;;;5133304;27;20225;-78
2022/03/20 03:30:03;;;;;;;9.80;1.85;;;26.10;99.90;;;;;;5133740;27;20206;-78
2022/03/20 03:32:34;;;;;;;6.43;1.70;;;26.20;99.90;;;;;;5123687;27;20202;-77
2022/03/20 03:37:51;;;;;;;7.10;1.50;;;26.20;99.90;;;;;;5132626;27;20256;-78
2022/03/20 03:40:24;;;;;;;6.28;1.70;;;26.30;99.90;;;;;;5133583;27;20198;-78
2022/03/20 03:42:55;;;;;;;6.82;1.60;;;26.30;99.90;;;;;;5133608;27;20257;-78
2022/03/20 03:45:26;;;;;;;4.25;1.23;;;26.30;99.90;;;;;;5134482;27;20197;-78
2022/03/20 03:47:57;;;;;;;5.78;1.75;;;26.20;99.90;;;;;;5133365;27;20239;-78
2022/03/20 03:50:28;;;;;;;7.47;1.50;;;26.20;99.90;;;;;;5116088;27;20248;-77
2022/03/20 03:53:00;;;;;;;4.05;1.10;;;26.20;99.90;;;;;;5112641;28;20253;-77
2022/03/20 03:55:33;;;;;;;7.72;1.42;;;26.20;99.90;;;;;;5123781;27;20201;-79
2022/03/20 03:58:03;;;;;;;5.68;1.42;;;26.20;99.90;;;;;;5133268;27;20566;-78
2022/03/20 04:00:34;;;;;;;6.38;1.52;;;26.10;99.90;;;;;;5133231;27;20198;-77
2022/03/20 04:03:05;;;;;;;5.70;1.88;;;26.20;99.90;;;;;;5132884;27;20202;-77
2022/03/20 04:05:36;;;;;;;5.30;1.60;;;26.20;99.90;;;;;;5132221;27;20202;-78
2022/03/20 04:08:09;;;;;;;4.88;1.50;;;26.20;99.90;;;;;;5124689;27;20644;-78
2022/03/20 04:10:42;;;;;;;6.43;1.60;;;26.10;99.90;;;;;;5111898;28;20474;-78
2022/03/20 04:13:12;;;;;;;5.20;1.50;;;26.10;99.90;;;;;;5129053;27;20247;-78
2022/03/20 04:15:43;;;;;;;6.07;1.58;;;26.00;99.90;;;;;;5130522;27;20605;-77
2022/03/20 04:18:15;;;;;;;6.80;1.42;;;25.90;99.90;;;;;;5118796;27;20542;-77
2022/03/20 04:20:47;;;;;;;5.05;1.17;;;25.90;99.90;;;;;;5112578;28;20195;-77
2022/03/20 04:26:06;;;;;;;5.82;1.60;;;25.80;99.90;;;;;;5132781;27;20557;-77
2022/03/20 04:28:37;;;;;;;4.45;1.13;;;25.70;99.90;;;;;;5130958;27;20644;-77
2022/03/20 04:31:08;;;;;;;6.00;1.60;;;25.70;99.90;;;;;;5132655;27;20209;-78
2022/03/20 04:33:38;;;;;;;5.53;1.52;;;25.70;99.90;;;;;;5130241;27;20247;-78
2022/03/20 04:36:09;;;;;;;10.13;1.92;;;25.70;99.90;;;;;;5127598;27;20191;-77
2022/03/20 04:38:40;;;;;;;6.38;1.58;;;25.70;99.90;;;;;;5125733;27;20194;-77
2022/03/20 04:41:15;;;;;;;5.35;1.55;;;25.70;99.90;;;;;;5117364;27;20570;-77
2022/03/20 04:43:47;;;;;;;4.45;1.40;;;25.70;99.90;;;;;;5114865;27;20255;-76
2022/03/20 04:46:18;;;;;;;4.68;1.42;;;25.70;99.90;;;;;;5129318;27;20200;-77
2022/03/20 04:59:58;;;;;;;5.72;1.58;;;25.60;99.90;;;;;;5111627;28;20189;-78
2022/03/20 05:02:29;;;;;;;5.22;1.40;;;25.60;99.90;;;;;;5113566;27;20258;-78
2022/03/20 05:04:59;;;;;;;4.82;1.60;;;25.60;99.90;;;;;;5131770;27;20724;-78
2022/03/20 05:07:30;;;;;;;4.85;1.10;;;25.60;99.90;;;;;;5112785;27;20539;-78
2022/03/20 05:15:39;;;;;;;6.85;1.40;;;25.60;99.90;;;;;;5112183;27;20204;-78
2022/03/20 05:18:10;;;;;;;5.32;1.50;;;25.70;99.90;;;;;;5111207;28;20205;-78
2022/03/20 05:20:43;;;;;;;7.90;1.63;;;25.70;99.90;;;;;;5111573;28;20240;-78
2022/03/20 05:23:14;;;;;;;5.57;1.50;;;25.70;99.90;;;;;;5110457;28;20661;-79
2022/03/20 05:25:45;;;;;;;7.32;1.77;;;25.60;99.90;;;;;;5110986;28;20251;-79
2022/03/20 05:28:18;;;;;;;6.43;1.48;;;25.80;99.90;;;;;;5129363;27;20274;-79
2022/03/20 05:30:50;;;;;;;7.30;1.60;;;25.80;99.90;;;;;;5126162;27;20649;-79
2022/03/20 05:33:21;;;;;;;4.93;1.40;;;25.80;99.90;;;;;;5111421;28;20194;-79
2022/03/20 05:35:51;;;;;;;6.20;1.58;;;26.00;99.90;;;;;;5115984;28;20676;-78
2022/03/20 05:38:23;;;;;;;3.63;1.25;;;26.00;99.90;;;;;;5112890;28;20194;-78
2022/03/20 05:41:43;;;;;;;6.05;1.40;;;26.20;99.90;;;;;;5110731;28;20206;-78
2022/03/20 05:43:52;;;;;;;6.20;1.60;;;26.20;99.90;;;;;;5110400;28;20283;-78
2022/03/20 05:46:24;;;;;;;6.28;1.52;;;26.20;99.90;;;;;;5110757;28;20195;-79
2022/03/20 05:48:55;;;;;;;5.45;1.20;;;26.30;99.90;;;;;;5120352;28;20193;-77
2022/03/20 05:51:26;;;;;;;5.25;1.35;;;26.30;99.90;;;;;;5121812;28;20230;-78
2022/03/20 05:53:56;;;;;;;4.45;1.42;;;26.30;99.90;;;;;;5127738;28;20217;-78
2022/03/20 05:59:15;;;;;;;7.57;1.63;;;26.30;99.90;;;;;;5112036;28;20201;-78
2022/03/20 06:01:46;;;;;;;6.82;1.38;;;26.50;99.90;;;;;;5109991;28;20226;-77
2022/03/20 06:04:17;;;;;;;7.82;1.63;;;26.50;99.90;;;;;;5109194;28;20381;-77
2022/03/20 06:06:48;;;;;;;5.75;1.70;;;26.50;99.90;;;;;;5110910;28;20198;-76
2022/03/20 06:09:19;;;;;;;6.28;1.63;;;26.60;99.90;;;;;;5110851;28;20195;-77
2022/03/20 06:11:50;;;;;;;5.25;1.70;;;26.70;99.90;;;;;;5111685;28;21035;-77
2022/03/20 06:14:23;;;;;;;5.63;1.60;;;26.70;99.90;;;;;;5110821;28;20228;-77
2022/03/20 06:16:54;;;;;;;6.00;1.70;;;26.70;99.90;;;;;;5110497;28;20205;-77
2022/03/20 06:19:26;;;;;;;8.57;1.80;;;26.80;99.90;;;;;;5126803;28;20644;-77
2022/03/20 06:21:59;;;;;;;6.38;1.65;;;26.90;99.90;;;;;;5120060;28;20196;-77
2022/03/20 06:24:30;;;;;;;7.55;1.85;;;26.90;99.90;;;;;;5110053;28;20218;-76
2022/03/20 06:27:00;;;;;;;7.22;1.48;;;27.00;99.90;;;;;;5109501;28;20209;-77
2022/03/20 06:29:33;;;;;;;5.00;1.45;;;27.20;99.90;;;;;;5110423;28;20299;-78
2022/03/20 06:32:03;;;;;;;7.18;1.80;;;27.50;99.90;;;;;;5110144;28;20199;-78
2022/03/20 06:34:35;;;;;;;7.30;1.83;;;27.80;99.90;;;;;;5113135;28;20206;-77
2022/03/20 06:37:05;;;;;;;9.13;1.90;;;28.10;99.90;;;;;;5116964;27;20284;-80
2022/03/20 06:39:36;;;;;;;7.93;1.45;;;28.30;99.90;;;;;;5122374;27;20194;-77
2022/03/20 06:42:07;;;;;;;5.35;1.27;;;28.40;99.90;;;;;;5113911;28;20623;-77
2022/03/20 06:44:40;;;;;;;5.53;1.50;;;28.60;99.90;;;;;;5120934;27;20221;-75
2022/03/20 06:47:11;;;;;;;4.15;1.40;;;28.80;99.90;;;;;;5113981;28;20198;-77
2022/03/20 06:49:43;;;;;;;6.32;1.48;;;28.90;99.90;;;;;;5113711;28;20203;-77
2022/03/20 06:52:13;;;;;;;8.10;1.88;;;29.20;99.90;;;;;;5113589;28;20807;-77
2022/03/20 06:54:44;;;;;;;4.55;1.30;;;29.40;99.90;;;;;;5113435;28;20190;-76
2022/03/20 06:57:15;;;;;;;6.75;1.70;;;29.70;99.90;;;;;;5114444;27;20736;-76
2022/03/20 06:59:47;;;;;;;5.13;1.48;;;29.60;99.90;;;;;;5113497;28;20248;-77
2022/03/20 07:02:19;;;;;;;6.55;1.23;;;29.70;99.90;;;;;;5116844;27;20206;-77
2022/03/20 07:04:51;;;;;;;6.03;1.63;;;29.60;99.90;;;;;;5130802;27;20312;-76
2022/03/20 07:07:21;;;;;;;3.33;1.05;;;29.60;99.90;;;;;;5134613;27;20648;-76
2022/03/20 07:09:53;;;;;;;5.88;1.13;;;29.50;99.90;;;;;;5133884;27;20201;-77
2022/03/20 07:12:23;;;;;;;2.72;1.13;;;29.40;99.90;;;;;;5132681;27;20573;-77
2022/03/20 07:14:57;;;;;;;4.07;1.42;;;29.30;99.90;;;;;;5113147;28;20206;-77
2022/03/20 07:17:28;;;;;;;4.50;1.20;;;29.20;99.90;;;;;;5113018;28;20236;-77
2022/03/20 07:19:59;;;;;;;3.05;1.17;;;28.90;99.90;;;;;;5132901;27;20202;-77
2022/03/20 07:22:30;;;;;;;5.03;1.13;;;28.60;99.90;;;;;;5113750;27;20637;-78
2022/03/20 07:29:29;;;;;;;3.63;1.30;;;28.20;99.90;;;;;;5112923;28;20643;-77
2022/03/20 07:30:39;;;;;;;4.00;1.50;;;27.40;99.90;;;;;;5132685;27;20725;-76
2022/03/20 07:38:55;;;;;;;3.47;1.10;;;26.50;99.90;;;;;;5112960;28;20243;-77
2022/03/20 07:41:26;;;;;;;6.25;1.65;;;26.10;99.90;;;;;;5113150;28;20714;-76
2022/03/20 07:43:57;;;;;;;6.75;1.30;;;25.80;99.90;;;;;;5113548;28;20195;-76
2022/03/20 07:46:29;;;;;;;3.85;1.10;;;25.50;99.90;;;;;;5112686;27;20653;-76
2022/03/20 07:49:00;;;;;;;4.55;1.30;;;25.30;99.90;;;;;;5133191;27;20616;-77
2022/03/20 07:51:32;;;;;;;4.25;1.33;;;25.20;99.90;;;;;;5132800;27;20201;-77
2022/03/20 07:54:03;;;;;;;3.58;1.30;;;24.90;99.90;;;;;;5117744;27;20213;-76
2022/03/20 07:56:35;;;;;;;4.57;1.50;;;24.70;99.90;;;;;;5132786;27;20200;-76
2022/03/20 07:59:07;;;;;;;5.18;1.50;;;24.50;99.90;;;;;;5133140;27;20202;-76
2022/03/20 08:01:43;;;;;;;4.63;1.17;;;24.40;99.90;;;;;;5132986;27;20204;-76
2022/03/20 08:04:14;;;;;;;4.40;1.15;;;24.30;99.90;;;;;;5125541;27;20206;-77
2022/03/20 08:06:45;;;;;;;5.78;1.40;;;24.20;99.90;;;;;;5112370;28;20195;-78
2022/03/20 08:09:15;;;;;;;5.18;1.52;;;24.10;99.90;;;;;;5112627;28;20205;-77
2022/03/20 08:11:46;;;;;;;5.30;1.30;;;24.00;99.90;;;;;;5130628;27;20207;-77
2022/03/20 08:14:17;;;;;;;6.25;1.70;;;23.90;99.90;;;;;;5121004;27;20189;-78
2022/03/20 08:16:50;;;;;;;3.53;1.38;;;23.90;99.90;;;;;;5112148;27;20221;-78
2022/03/20 08:19:23;;;;;;;6.40;1.40;;;23.80;99.90;;;;;;5112375;28;20194;-77
2022/03/20 08:21:53;;;;;;;3.45;1.20;;;23.70;99.90;;;;;;5112973;27;20209;-76
2022/03/20 08:24:24;;;;;;;5.55;1.52;;;23.70;99.90;;;;;;5111884;28;20195;-77
2022/03/20 08:26:55;;;;;;;4.07;1.15;;;23.60;99.90;;;;;;5118032;27;20198;-77
2022/03/20 08:29:26;;;;;;;5.97;1.95;;;23.60;99.90;;;;;;5132413;27;20226;-77
2022/03/20 08:31:58;;;;;;;6.30;1.60;;;23.60;99.90;;;;;;5132546;27;20190;-76
2022/03/20 08:34:29;;;;;;;5.28;1.30;;;23.50;99.90;;;;;;5111972;28;20195;-76
2022/03/20 08:36:59;;;;;;;7.63;2.20;;;23.40;99.90;;;;;;5111847;28;20194;-77
2022/03/20 08:39:30;;;;;;;4.90;1.30;;;23.40;99.90;;;;;;5120945;27;20198;-76
2022/03/20 08:42:01;;;;;;;5.25;1.45;;;23.40;99.90;;;;;;5130311;27;20201;-77
2022/03/20 08:44:32;;;;;;;3.10;1.00;;;23.40;99.90;;;;;;5128518;27;20204;-77
2022/03/20 08:47:04;;;;;;;6.35;2.42;;;23.40;99.90;;;;;;5131856;27;20197;-84
2022/03/20 08:49:35;;;;;;;7.18;2.25;;;23.30;99.90;;;;;;5111336;28;20675;-78
2022/03/20 08:52:06;;;;;;;5.80;1.98;;;23.30;99.90;;;;;;5114506;27;20194;-77
2022/03/20 08:54:37;;;;;;;4.93;1.40;;;23.30;99.90;;;;;;5111446;28;20243;-76
2022/03/20 08:57:08;;;;;;;8.07;2.28;;;23.30;99.90;;;;;;5110380;28;20220;-76
2022/03/20 08:59:39;;;;;;;8.73;3.20;;;23.30;99.90;;;;;;5113461;28;20251;-75
2022/03/20 09:02:11;;;;;;;5.13;2.22;;;23.30;99.90;;;;;;5112718;28;20199;-77
2022/03/20 09:04:42;;;;;;;5.30;1.70;;;23.30;99.90;;;;;;5111990;27;20217;-76
2022/03/20 09:07:13;;;;;;;4.72;1.40;;;23.30;99.90;;;;;;5131837;27;20231;-76
2022/03/20 09:09:43;;;;;;;5.85;1.20;;;23.20;99.90;;;;;;5131617;27;20201;-76
2022/03/20 09:12:14;;;;;;;4.97;1.23;;;23.20;99.90;;;;;;5131806;27;20197;-76
2022/03/20 09:14:45;;;;;;;3.70;1.40;;;23.20;99.90;;;;;;5116406;27;20195;-77
2022/03/20 09:20:04;;;;;;;4.32;1.23;;;23.10;99.90;;;;;;5126524;27;20562;-77
2022/03/20 09:22:36;;;;;;;5.03;1.63;;;23.10;99.90;;;;;;5119162;27;20195;-77
2022/03/20 09:25:07;;;;;;;4.63;1.20;;;23.10;99.90;;;;;;5125938;27;20210;-77
2022/03/20 09:27:38;;;;;;;7.45;1.35;;;23.10;99.90;;;;;;5130853;27;20226;-77
2022/03/20 09:30:10;;;;;;;3.47;1.17;;;23.10;99.90;;;;;;5131413;27;20205;-76
2022/03/20 09:32:42;;;;;;;4.68;1.33;;;23.00;99.90;;;;;;5131273;27;20201;-76
2022/03/20 09:35:15;;;;;;;4.47;1.80;;;23.10;99.90;;;;;;5131347;27;20587;-77
2022/03/20 09:37:49;;;;;;;4.68;1.67;;;23.10;99.90;;;;;;5130875;27;20194;-75
2022/03/20 09:43:25;;;;;;;3.58;0.98;;;23.00;99.90;;;;;;5127829;27;20202;-77
2022/03/20 09:45:57;;;;;;;5.80;1.38;;;23.00;99.90;;;;;;5120728;28;20634;-76
2022/03/20 09:48:35;;;;;;;7.63;1.30;;;23.00;99.90;;;;;;5123534;28;20225;-75
2022/03/20 09:51:07;;;;;;;2.88;0.90;;;23.00;99.90;;;;;;5115312;28;20194;-76
2022/03/20 09:53:38;;;;;;;3.92;1.23;;;23.00;99.90;;;;;;5121358;28;20224;-76
2022/03/20 09:56:11;;;;;;;2.13;0.80;;;23.00;99.90;;;;;;5110280;28;20553;-77
2022/03/20 09:58:46;;;;;;;4.65;1.20;;;22.90;99.90;;;;;;5120880;28;20200;-76
2022/03/20 10:01:21;;;;;;;3.20;0.98;;;22.90;99.90;;;;;;5130253;28;20702;-76
2022/03/20 10:04:11;;;;;;;3.35;0.80;;;22.90;99.90;;;;;;5128591;28;20194;-75
2022/03/20 10:06:48;;;;;;;4.97;1.10;;;22.90;99.90;;;;;;5128920;28;20218;-77
2022/03/20 10:12:15;;;;;;;3.15;0.80;;;22.90;99.90;;;;;;5151097;27;20221;-77
2022/03/20 10:14:57;;;;;;;5.40;1.30;;;22.80;99.90;;;;;;5149353;27;20206;-77
2022/03/20 10:17:27;;;;;;;3.33;1.20;;;22.80;99.90;;;;;;5140842;27;20235;-76
2022/03/20 10:20:21;;;;;;;2.60;1.25;;;22.70;99.90;;;;;;5144353;27;20177;-76
2022/03/20 10:22:53;;;;;;;3.78;1.10;;;22.70;99.90;;;;;;5126934;27;20722;-76
2022/03/20 10:25:24;;;;;;;2.78;0.95;;;22.60;99.90;;;;;;5122650;27;20229;-76
2022/03/20 10:28:02;;;;;;;4.05;0.77;;;22.70;99.90;;;;;;5123257;27;20222;-76
2022/03/20 10:30:37;;;;;;;4.65;1.00;;;22.70;99.90;;;;;;5121438;28;20202;-76
2022/03/20 10:33:20;;;;;;;2.42;0.80;;;22.60;99.90;;;;;;5125811;27;20196;-78
2022/03/20 10:36:19;;;;;;;3.63;0.90;;;22.70;99.90;;;;;;5150187;27;20182;-76
2022/03/20 10:38:53;;;;;;;2.20;0.75;;;22.60;99.90;;;;;;5125440;28;20206;-74
2022/03/20 10:41:38;;;;;;;4.82;0.90;;;22.60;99.90;;;;;;5150923;27;20182;-77
2022/03/20 10:44:16;;;;;;;3.35;0.80;;;22.60;99.90;;;;;;5132084;27;20237;-76
2022/03/20 10:46:57;;;;;;;5.00;0.90;;;22.60;99.90;;;;;;5114414;28;20226;-76
2022/03/20 10:49:29;;;;;;;3.30;0.98;;;22.60;99.90;;;;;;5103996;28;20275;-76
2022/03/20 10:52:09;;;;;;;3.28;0.80;;;22.60;99.90;;;;;;5114977;28;20538;-76
2022/03/20 10:54:44;;;;;;;3.70;0.90;;;22.60;99.90;;;;;;5125484;27;20190;-75
2022/03/20 10:57:16;;;;;;;2.85;0.80;;;22.60;99.90;;;;;;5124488;27;20251;-77
2022/03/20 11:00:00;;;;;;;4.05;0.95;;;22.50;99.90;;;;;;5135634;27;20251;-76
2022/03/20 11:02:34;;;;;;;3.17;0.93;;;22.50;99.90;;;;;;5118615;28;20199;-76
2022/03/20 11:05:04;;;;;;;3.20;0.90;;;22.50;99.90;;;;;;5116237;27;20201;-75
2022/03/20 11:07:37;;;;;;;3.25;0.95;;;22.50;99.90;;;;;;5113860;28;20195;-77
2022/03/20 11:10:13;;;;;;;3.00;0.80;;;22.50;99.90;;;;;;5118331;28;20701;-77
2022/03/20 11:12:45;;;;;;;2.38;1.00;;;22.50;99.90;;;;;;5119231;28;20198;-77
2022/03/20 11:15:16;;;;;;;3.03;1.10;;;22.50;99.90;;;;;;5117648;28;20282;-77
2022/03/20 11:17:48;;;;;;;5.82;1.10;;;22.50;99.90;;;;;;5119187;27;20211;-77
2022/03/20 11:20:20;;;;;;;3.50;0.80;;;22.50;99.90;;;;;;5131967;27;20190;-77
2022/03/20 11:22:54;;;;;;;2.38;0.90;;;22.50;99.90;;;;;;5147754;27;20200;-77
2022/03/20 11:25:30;;;;;;;5.53;1.20;;;22.50;99.90;;;;;;5157015;27;20205;-77
2022/03/20 11:28:03;;;;;;;4.55;1.00;;;22.40;99.90;;;;;;5147195;27;20229;-76
2022/03/20 11:30:35;;;;;;;3.28;0.80;;;22.40;99.90;;;;;;5150447;27;20220;-77
2022/03/20 11:33:09;;;;;;;3.42;0.90;;;22.40;99.90;;;;;;5139545;27;20198;-77
2022/03/20 11:35:40;;;;;;;3.50;0.98;;;22.40;99.90;;;;;;5116550;28;20187;-77
2022/03/20 11:38:24;;;;;;;4.70;1.13;;;22.40;99.90;;;;;;5119778;28;20538;-77
2022/03/20 11:41:13;;;;;;;2.75;1.00;;;22.40;99.90;;;;;;5124823;27;20190;-77
2022/03/20 11:43:47;;;;;;;2.63;0.80;;;22.30;99.90;;;;;;5116271;28;20194;-76
2022/03/20 11:46:21;;;;;;;5.05;0.90;;;22.40;99.90;;;;;;5115307;28;20651;-77
2022/03/20 11:49:29;;;;;;;3.78;1.20;;;22.30;99.90;;;;;;5113983;28;20615;-75
2022/03/20 11:52:11;;;;;;;4.22;1.00;;;22.30;99.90;;;;;;5115033;27;20245;-76
2022/03/20 11:54:59;;;;;;;5.70;1.20;;;22.30;99.90;;;;;;5114498;28;20631;-75
2022/03/20 11:57:43;;;;;;;5.35;1.25;;;22.20;99.90;;;;;;5115018;28;20230;-75
2022/03/20 12:00:16;;;;;;;3.85;1.13;;;22.20;99.90;;;;;;5113116;28;20679;-75
2022/03/20 12:03:05;;;;;;;4.35;1.17;;;22.20;99.90;;;;;;5112474;28;20198;-75
2022/03/20 12:05:56;;;;;;;3.40;1.20;;;22.20;99.90;;;;;;5112693;28;20198;-75
2022/03/20 12:08:40;;;;;;;5.35;1.48;;;22.10;99.90;;;;;;5123309;27;20201;-75
2022/03/20 12:11:28;;;;;;;6.45;1.00;;;22.10;99.90;;;;;;5113024;27;20221;-75
2022/03/20 12:14:14;;;;;;;3.30;1.20;;;22.00;99.90;;;;;;5112652;28;20194;-75
2022/03/20 12:17:01;;;;;;;4.13;1.27;;;21.90;99.90;;;;;;5112321;28;20240;-74
2022/03/20 12:19:48;;;;;;;3.38;1.08;;;21.90;99.90;;;;;;5112350;28;20252;-74
2022/03/20 12:22:31;;;;;;;4.40;1.10;;;21.90;99.90;;;;;;5117485;27;20198;-74
2022/03/20 12:25:04;;;;;;;8.77;1.48;;;21.90;99.90;;;;;;5124919;27;20602;-74
2022/03/20 12:27:52;;;;;;;2.25;0.80;;;21.90;99.90;;;;;;5111501;28;20230;-74
2022/03/20 12:30:39;;;;;;;4.93;1.15;;;21.80;99.90;;;;;;5112088;28;20195;-75
2022/03/20 12:33:24;;;;;;;3.85;1.00;;;21.80;99.90;;;;;;5111520;28;20198;-74
2022/03/20 12:35:59;;;;;;;4.88;1.15;;;21.80;99.90;;;;;;5111626;28;20657;-74
2022/03/20 12:38:39;;;;;;;3.35;1.20;;;21.70;99.90;;;;;;5111441;28;20198;-74
2022/03/20 12:41:12;;;;;;;3.60;1.00;;;21.70;99.90;;;;;;5111515;28;20190;-74
2022/03/20 12:43:45;;;;;;;3.75;1.13;;;21.70;99.90;;;;;;5120960;27;20194;-75
2022/03/20 12:46:17;;;;;;;6.55;1.50;;;21.70;99.90;;;;;;5118460;27;20274;-76
2022/03/20 12:48:55;;;;;;;3.83;1.27;;;21.70;99.90;;;;;;5131737;27;20204;-76
2022/03/20 12:51:38;;;;;;;6.38;1.50;;;21.70;99.90;;;;;;5131900;27;20198;-76
2022/03/20 12:54:15;;;;;;;6.43;1.42;;;21.70;99.90;;;;;;5131707;27;20566;-76
2022/03/20 12:56:59;;;;;;;5.90;1.50;;;21.60;99.90;;;;;;5131690;27;20313;-76
2022/03/20 12:59:32;;;;;;;5.07;1.20;;;21.70;99.90;;;;;;5122220;27;20251;-75
2022/03/20 13:02:08;;;;;;;6.03;1.45;;;21.60;99.90;;;;;;5111124;28;20199;-76
2022/03/20 13:04:43;;;;;;;7.78;1.55;;;21.60;99.90;;;;;;5111103;28;20201;-75
2022/03/20 13:07:26;;;;;;;5.00;1.20;;;21.60;99.90;;;;;;5110744;28;20715;-75
2022/03/20 13:10:03;;;;;;;6.57;1.30;;;21.60;99.90;;;;;;5113229;27;20198;-76
2022/03/20 13:12:58;;;;;;;5.80;1.17;;;21.60;99.90;;;;;;5110592;28;20653;-76
2022/03/20 13:15:32;;;;;;;5.40;1.63;;;21.60;99.90;;;;;;5111415;27;20210;-75
2022/03/20 13:18:03;;;;;;;4.20;1.40;;;21.50;99.90;;;;;;5111140;28;20217;-75
2022/03/20 13:20:37;;;;;;;6.15;1.25;;;21.60;99.90;;;;;;5110641;28;20194;-75
2022/03/20 13:23:12;;;;;;;4.70;1.23;;;21.60;99.90;;;;;;5110602;28;20203;-75
2022/03/20 13:25:44;;;;;;;4.57;1.17;;;21.60;99.90;;;;;;5110612;28;20201;-74
2022/03/20 13:28:27;;;;;;;10.50;1.70;;;21.60;99.90;;;;;;5127557;27;20225;-77
2022/03/20 13:31:01;;;;;;;5.38;1.05;;;21.50;99.90;;;;;;5131490;27;20196;-76
2022/03/20 13:33:34;;;;;;;6.63;1.48;;;21.50;99.90;;;;;;5130010;27;20205;-76
2022/03/20 13:36:08;;;;;;;4.40;1.40;;;21.40;99.90;;;;;;5131130;27;20262;-76
2022/03/20 13:38:41;;;;;;;5.03;1.27;;;21.40;99.90;;;;;;5130956;27;20200;-76
2022/03/20 13:41:13;;;;;;;2.75;1.02;;;21.40;99.90;;;;;;5131076;27;20190;-75
2022/03/20 13:43:46;;;;;;;5.40;1.30;;;21.40;99.90;;;;;;5120558;27;20220;-76
2022/03/20 13:46:23;;;;;;;5.30;1.38;;;21.40;99.90;;;;;;5111193;28;20222;-77
2022/03/20 13:48:55;;;;;;;6.60;1.42;;;21.40;99.90;;;;;;5114412;28;20534;-77
2022/03/20 13:51:27;;;;;;;6.22;1.48;;;21.30;99.90;;;;;;5113885;28;20653;-77
2022/03/20 13:54:17;;;;;;;7.53;1.60;;;21.30;99.90;;;;;;5111355;28;20198;-77
2022/03/20 13:56:49;;;;;;;7.97;2.03;;;21.20;99.90;;;;;;5110612;28;20202;-77
2022/03/20 13:59:22;;;;;;;7.15;1.42;;;21.20;99.90;;;;;;5112180;28;20211;-78
2022/03/20 14:01:57;;;;;;;4.85;1.23;;;21.20;99.90;;;;;;5103977;28;20219;-78
2022/03/20 14:04:28;;;;;;;4.65;1.40;;;21.20;99.90;;;;;;5099937;28;20190;-77
2022/03/20 14:07:00;;;;;;;4.28;1.45;;;21.20;99.90;;;;;;5098125;28;20326;-77